createdAt,value
2019-02-06T00:00:45.923Z,73.94
2019-02-06T00:04:53.048Z,73.95
2019-02-06T00:09:00.663Z,74.10
2019-02-06T00:13:09.754Z,74.42
2019-02-06T00:17:16.766Z,73.80
2019-02-06T00:21:23.777Z,73.80
2019-02-06T00:25:30.934Z,74.41
2019-02-06T00:29:37.749Z,74.65
2019-02-06T00:33:44.801Z,74.87
2019-02-06T00:37:51.693Z,75.50
2019-02-06T00:41:58.675Z,75.32
2019-02-06T00:46:05.868Z,75.39
2019-02-06T00:50:14.595Z,75.54
2019-02-06T00:54:24.910Z,75.49
2019-02-06T00:58:31.785Z,75.91
2019-02-06T01:02:38.600Z,76.02
2019-02-06T01:06:45.415Z,76.41
2019-02-06T01:10:52.376Z,76.64
2019-02-06T01:14:59.564Z,76.80
2019-02-06T01:19:07.109Z,76.76
2019-02-06T01:23:16.127Z,77.21
2019-02-06T01:27:22.615Z,77.81
2019-02-06T01:31:31.833Z,77.91
2019-02-06T01:35:49.246Z,77.95
2019-02-06T01:39:47.227Z,78.21
2019-02-06T01:43:54.096Z,78.32
2019-02-06T01:48:00.953Z,78.61
2019-02-06T01:52:08.902Z,78.61
2019-02-06T01:56:17.472Z,79.05
2019-02-06T02:00:25.651Z,78.78
2019-02-06T02:04:36.067Z,79.18
2019-02-06T02:08:57.685Z,79.58
2019-02-06T02:13:05.120Z,79.96
2019-02-06T04:43:48.955Z,82.14
2019-02-06T04:47:56.247Z,82.16
2019-02-06T04:52:03.363Z,82.17
2019-02-06T04:56:10.251Z,82.57
2019-02-06T05:00:23.629Z,81.78
2019-02-06T05:04:30.546Z,81.87
2019-02-06T05:08:38.094Z,84.90
2019-02-06T05:12:45.182Z,81.77
2019-02-06T05:16:52.131Z,82.09
2019-02-06T05:20:58.997Z,81.92
2019-02-06T05:25:06.585Z,81.77
2019-02-06T05:29:13.682Z,81.81
2019-02-06T05:33:20.791Z,81.68
2019-02-06T05:37:32.287Z,81.29
2019-02-06T05:41:36.527Z,81.68
2019-02-06T05:45:46.143Z,81.37
2019-02-06T05:49:53.027Z,81.58
2019-02-06T05:54:00.653Z,81.58
2019-02-06T05:58:09.418Z,81.37
2019-02-06T06:02:16.376Z,81.31
2019-02-06T06:06:23.225Z,86.95
2019-02-06T06:10:30.143Z,81.77
2019-02-06T06:14:36.993Z,81.81
2019-02-06T06:18:43.838Z,80.83
2019-02-06T06:22:51.032Z,80.10
2019-02-06T06:26:57.871Z,79.98
2019-02-06T06:31:04.754Z,80.51
2019-02-06T06:35:12.972Z,80.28
2019-02-06T06:39:20.051Z,80.14
2019-02-06T06:43:26.932Z,80.37
2019-02-06T06:47:33.856Z,80.56
2019-02-06T06:51:40.717Z,81.18
2019-02-06T06:55:47.600Z,80.93
2019-02-06T06:59:55.718Z,80.58
2019-02-06T07:04:02.972Z,80.83
2019-02-06T07:08:13.383Z,80.66
2019-02-06T07:12:18.650Z,81.42
2019-02-06T07:16:26.455Z,81.54
2019-02-06T07:20:33.848Z,80.85
2019-02-06T07:24:41.063Z,81.19
2019-02-06T07:28:48.060Z,80.52
2019-02-06T07:32:55.034Z,80.64
2019-02-06T07:37:01.944Z,80.49
2019-02-06T07:41:08.811Z,80.32
2019-02-06T07:45:16.521Z,80.26
2019-02-06T07:49:23.661Z,80.19
2019-02-06T07:53:30.691Z,80.18
2019-02-06T07:57:37.711Z,79.73
2019-02-06T08:01:44.627Z,80.00
2019-02-06T08:05:51.619Z,79.75
2019-02-06T08:09:58.506Z,79.89
2019-02-06T08:14:05.573Z,80.14
2019-02-06T08:18:12.492Z,79.02
2019-02-06T08:22:19.421Z,78.05
2019-02-06T08:26:26.360Z,77.57
2019-02-06T08:30:41.439Z,76.95
2019-02-06T08:34:48.374Z,75.92
2019-02-06T08:38:55.790Z,74.90
2019-02-06T08:43:03.032Z,74.22
2019-02-06T08:47:09.994Z,73.02
2019-02-06T08:51:16.890Z,72.26
2019-02-06T08:55:26.680Z,71.73
2019-02-06T08:59:36.173Z,71.20
2019-02-06T09:03:42.580Z,70.42
2019-02-06T09:07:49.508Z,69.56
2019-02-06T09:11:56.393Z,68.78
2019-02-06T09:16:03.252Z,68.56
2019-02-06T09:20:14.829Z,68.37
2019-02-06T09:24:23.814Z,67.93
2019-02-06T09:28:32.270Z,67.79
2019-02-06T09:32:40.224Z,67.32
2019-02-06T09:36:47.187Z,66.63
2019-02-06T09:40:54.186Z,66.73
2019-02-06T09:45:01.145Z,67.26
2019-02-06T09:49:08.037Z,66.41
2019-02-06T09:53:16.434Z,66.08
2019-02-06T09:57:25.000Z,65.93
2019-02-06T10:01:31.988Z,66.14
2019-02-06T10:05:38.808Z,65.54
2019-02-06T10:09:45.668Z,65.21
2019-02-06T10:13:52.976Z,64.32
2019-02-06T10:18:00.842Z,64.40
2019-02-06T10:22:07.681Z,63.43
2019-02-06T10:26:14.548Z,62.58
2019-02-06T10:30:35.147Z,62.65
2019-02-06T10:34:42.095Z,61.76
2019-02-06T10:38:49.003Z,61.65
2019-02-06T10:42:55.980Z,60.88
2019-02-06T10:47:02.865Z,59.91
2019-02-06T10:51:10.437Z,58.79
2019-02-06T10:55:17.965Z,57.88
2019-02-06T10:59:25.987Z,56.94
2019-02-06T11:03:32.928Z,57.06
2019-02-06T11:07:39.867Z,57.01
2019-02-06T11:11:46.804Z,57.97
2019-02-06T11:15:53.857Z,57.06
2019-02-06T11:20:01.165Z,57.42
2019-02-06T11:24:10.058Z,56.44
2019-02-06T11:28:17.970Z,56.31
2019-02-06T11:32:26.468Z,56.36
2019-02-06T11:36:33.371Z,56.09
2019-02-06T11:40:40.318Z,54.16
2019-02-06T11:44:47.684Z,54.04
2019-02-06T11:48:55.795Z,53.59
2019-02-06T11:53:04.903Z,53.12
2019-02-06T11:57:12.077Z,52.54
2019-02-06T12:01:28.934Z,51.93
2019-02-06T12:05:35.935Z,51.78
2019-02-06T12:09:42.956Z,51.25
2019-02-06T12:13:49.952Z,49.58
2019-02-06T12:17:59.350Z,50.86
2019-02-06T12:22:06.871Z,48.60
2019-02-06T12:26:14.402Z,47.75
2019-02-06T12:30:26.846Z,46.85
2019-02-06T12:34:33.882Z,46.91
2019-02-06T12:38:52.764Z,44.97
2019-02-06T12:42:50.922Z,43.16
2019-02-06T12:46:59.230Z,42.26
2019-02-06T12:51:06.320Z,42.87
2019-02-06T12:55:19.620Z,43.86
2019-02-06T12:59:26.656Z,41.81
2019-02-06T13:03:33.895Z,40.92
2019-02-06T13:07:40.989Z,42.82
2019-02-06T13:11:48.186Z,42.19
2019-02-06T13:15:55.175Z,41.29
2019-02-06T13:20:03.479Z,42.50
2019-02-06T13:24:10.797Z,43.94
2019-02-06T13:28:17.723Z,42.59
2019-02-06T13:32:24.969Z,42.91
2019-02-06T13:36:32.107Z,43.26
2019-02-06T13:40:45.738Z,43.91
2019-02-06T13:44:48.036Z,43.96
2019-02-06T13:48:55.126Z,43.74
2019-02-06T13:53:02.490Z,44.24
2019-02-06T13:57:09.710Z,45.02
2019-02-06T14:01:25.271Z,45.63
2019-02-06T14:05:30.316Z,46.09
2019-02-06T14:09:39.291Z,47.50
2019-02-06T14:13:46.218Z,47.84
2019-02-06T14:17:54.615Z,47.55
2019-02-06T14:22:05.511Z,48.33
2019-02-06T14:26:37.835Z,49.06
2019-02-06T14:31:54.019Z,49.37
2019-02-06T14:37:08.596Z,48.91
2019-02-06T14:41:45.172Z,49.13
2019-02-06T14:46:30.873Z,48.63
2019-02-06T14:51:47.806Z,46.91
2019-02-06T14:56:59.618Z,46.58
2019-02-06T15:01:42.034Z,46.93
2019-02-06T15:06:52.565Z,46.89
2019-02-06T15:11:29.043Z,47.88
2019-02-06T15:16:39.148Z,47.49
2019-02-06T15:21:31.714Z,48.86
2019-02-06T15:26:20.394Z,49.33
2019-02-06T15:31:19.717Z,49.32
2019-02-06T15:36:39.718Z,49.73
2019-02-06T15:41:30.481Z,49.59
2019-02-06T15:46:30.449Z,49.63
2019-02-06T15:51:42.329Z,49.46
2019-02-06T15:56:39.518Z,49.97
2019-02-06T16:01:31.588Z,50.24
2019-02-06T16:06:41.695Z,50.37
2019-02-06T16:12:16.885Z,50.60
2019-02-06T16:17:38.846Z,51.10
2019-02-06T16:22:24.534Z,51.66
2019-02-06T16:27:20.027Z,52.15
2019-02-06T16:32:30.237Z,53.02
2019-02-06T16:37:39.863Z,54.03
2019-02-06T16:42:49.292Z,54.14
2019-02-06T16:48:07.785Z,54.35
2019-02-06T16:53:21.247Z,54.72
2019-02-06T16:58:19.844Z,55.09
2019-02-06T17:03:23.220Z,56.21
2019-02-06T17:08:38.342Z,56.18
2019-02-06T17:13:55.523Z,57.67
2019-02-06T17:18:44.512Z,57.80
2019-02-06T17:24:01.536Z,57.57
2019-02-06T17:29:01.696Z,57.97
2019-02-06T17:34:15.490Z,57.83
2019-02-06T17:38:55.547Z,57.56
2019-02-06T17:43:54.635Z,58.03
2019-02-06T17:48:44.602Z,58.13
2019-02-06T17:53:47.638Z,58.22
2019-02-06T17:58:01.076Z,58.16
2019-02-06T18:02:08.324Z,57.80
2019-02-06T18:06:17.787Z,58.32
2019-02-06T18:10:24.859Z,58.56
2019-02-06T18:14:33.832Z,58.51
2019-02-06T18:18:40.801Z,59.50
2019-02-06T18:22:47.682Z,59.83
2019-02-06T18:26:55.909Z,59.91
2019-02-06T18:31:02.817Z,60.54
2019-02-06T18:35:10.722Z,59.59
2019-02-06T18:39:18.154Z,59.54
2019-02-06T18:43:25.125Z,59.09
2019-02-06T18:47:32.007Z,58.49
2019-02-06T18:51:39.091Z,58.50
2019-02-06T18:55:46.972Z,58.77
2019-02-06T18:59:54.104Z,59.11
2019-02-06T19:04:03.085Z,60.24
2019-02-06T19:08:10.286Z,59.83
2019-02-06T19:12:20.136Z,59.87
2019-02-06T19:16:27.071Z,59.98
2019-02-06T19:20:35.784Z,60.42
2019-02-06T19:24:43.484Z,61.12
2019-02-06T19:28:50.605Z,60.84
2019-02-06T19:32:57.849Z,62.00
2019-02-06T19:37:04.923Z,62.44
2019-02-06T19:41:11.878Z,62.81
2019-02-06T19:45:19.324Z,62.76
2019-02-06T19:49:26.510Z,63.04
2019-02-06T19:53:33.473Z,63.16
2019-02-06T19:57:42.074Z,63.12
2019-02-06T20:01:49.170Z,63.27
2019-02-06T20:05:56.575Z,63.37
2019-02-06T20:10:06.815Z,63.27
2019-02-06T20:14:14.279Z,63.35
2019-02-06T20:18:21.199Z,63.48
2019-02-06T20:22:29.509Z,63.72
2019-02-06T20:26:36.643Z,64.13
2019-02-06T20:30:44.793Z,64.44
2019-02-06T20:34:51.846Z,65.06
2019-02-06T20:38:59.024Z,65.40
2019-02-06T20:43:06.481Z,65.42
2019-02-06T20:47:13.600Z,65.61
2019-02-06T20:51:20.874Z,65.58
2019-02-06T20:55:28.188Z,65.73
2019-02-06T20:59:35.195Z,66.06
2019-02-06T21:03:42.404Z,66.61
2019-02-06T21:07:49.513Z,67.03
2019-02-06T21:11:56.885Z,68.32
2019-02-06T21:16:06.161Z,66.86
2019-02-06T21:20:18.854Z,67.04
2019-02-06T21:24:34.150Z,66.58
2019-02-06T21:28:41.200Z,66.97
2019-02-06T21:32:48.453Z,66.97
2019-02-06T21:37:13.864Z,67.45
2019-02-06T21:41:20.887Z,67.60
2019-02-06T21:45:27.775Z,67.93
2019-02-06T21:49:36.671Z,68.14
2019-02-06T21:53:44.147Z,68.13
2019-02-06T21:57:51.703Z,68.83
2019-02-06T22:01:58.873Z,69.17
2019-02-06T22:06:06.309Z,69.16
2019-02-06T22:10:15.050Z,69.56
2019-02-06T22:14:22.184Z,69.90
2019-02-06T22:18:29.368Z,70.00
2019-02-06T22:22:36.569Z,70.30
2019-02-06T22:26:47.479Z,70.20
2019-02-06T22:30:54.538Z,70.33
2019-02-06T22:35:05.378Z,70.60
2019-02-06T22:39:15.177Z,70.54
2019-02-06T22:43:22.204Z,70.83
2019-02-06T22:47:29.632Z,70.06
2019-02-06T22:51:36.554Z,70.31
2019-02-06T22:55:43.570Z,70.59
2019-02-06T22:59:50.587Z,71.10
2019-02-06T23:03:57.669Z,70.90
2019-02-06T23:08:05.808Z,71.85
2019-02-06T23:12:13.019Z,71.74
2019-02-06T23:16:21.452Z,71.82
2019-02-06T23:20:28.614Z,72.40
2019-02-06T23:24:35.509Z,72.32
2019-02-06T23:28:43.014Z,72.79
2019-02-06T23:32:50.015Z,72.81
2019-02-06T23:36:57.003Z,72.73
2019-02-06T23:41:04.349Z,73.05
2019-02-06T23:45:11.718Z,72.37
2019-02-06T23:49:18.986Z,72.71
2019-02-06T23:53:25.820Z,72.27
2019-02-06T23:57:32.707Z,72.27
